createdAt,value
2023-01-29T00:00:09.929Z,93.30
2023-01-29T00:02:39.272Z,92.41
2023-01-29T00:05:25.452Z,92.11
2023-01-29T00:07:53.338Z,90.72
2023-01-29T00:10:19.815Z,90.76
2023-01-29T00:12:46.282Z,90.22
2023-01-29T00:15:12.733Z,89.80
2023-01-29T00:17:39.213Z,90.94
2023-01-29T00:20:06.144Z,90.61
2023-01-29T00:22:32.613Z,89.61
2023-01-29T00:24:59.157Z,89.64
2023-01-29T00:27:25.597Z,87.91
2023-01-29T00:30:11.246Z,87.70
2023-01-29T00:32:37.745Z,87.64
2023-01-29T00:35:04.585Z,89.09
2023-01-29T00:37:31.056Z,88.74
2023-01-29T00:39:57.675Z,90.52
2023-01-29T00:42:43.609Z,90.47
2023-01-29T00:45:12.024Z,89.99
2023-01-29T00:47:38.448Z,90.74
2023-01-29T00:50:08.481Z,91.09
2023-01-29T00:52:36.409Z,90.34
2023-01-29T00:55:05.633Z,90.73
2023-01-29T00:57:33.785Z,90.68
2023-01-29T01:00:00.464Z,90.29
2023-01-29T01:02:46.276Z,90.57
2023-01-29T01:05:18.142Z,89.04
2023-01-29T01:07:53.703Z,89.13
2023-01-29T01:10:26.301Z,91.16
2023-01-29T01:13:01.575Z,91.96
2023-01-29T01:15:31.243Z,91.32
2023-01-29T01:18:00.226Z,88.64
2023-01-29T01:20:30.136Z,88.59
2023-01-29T01:22:57.536Z,90.12
2023-01-29T01:25:25.669Z,89.29
2023-01-29T01:27:53.655Z,90.82
2023-01-29T01:30:20.594Z,90.76
2023-01-29T01:32:47.050Z,90.10
2023-01-29T01:35:16.213Z,90.33
2023-01-29T01:37:42.801Z,90.19
2023-01-29T01:40:18.047Z,88.94
2023-01-29T01:42:48.790Z,88.98
2023-01-29T01:45:20.092Z,88.03
2023-01-29T01:47:51.314Z,86.57
2023-01-29T01:50:24.808Z,86.48
2023-01-29T01:52:55.277Z,86.38
2023-01-29T01:55:25.983Z,87.20
2023-01-29T01:58:00.104Z,87.63
2023-01-29T02:00:26.952Z,89.27
2023-01-29T02:03:13.105Z,89.45
2023-01-29T02:05:59.455Z,89.65
2023-01-29T02:09:03.222Z,88.44
2023-01-29T02:11:30.626Z,86.87
2023-01-29T02:13:57.672Z,88.23
2023-01-29T02:16:25.674Z,88.31
2023-01-29T02:18:52.801Z,87.49
2023-01-29T02:21:50.698Z,87.46
2023-01-29T02:24:59.705Z,88.49
2023-01-29T02:27:35.967Z,88.95
2023-01-29T02:30:10.721Z,88.22
2023-01-29T02:32:58.535Z,89.85
2023-01-29T02:35:42.592Z,90.46
2023-01-29T02:38:47.637Z,91.68
2023-01-29T02:41:22.723Z,90.71
2023-01-29T02:44:02.193Z,90.41
2023-01-29T02:46:41.174Z,90.63
2023-01-29T02:49:26.433Z,90.98
2023-01-29T02:52:12.543Z,90.15
2023-01-29T02:55:03.060Z,91.16
2023-01-29T02:57:35.205Z,91.04
2023-01-29T03:00:09.559Z,93.30
2023-01-29T03:02:55.432Z,91.37
2023-01-29T03:05:30.926Z,94.26
2023-01-29T03:08:04.616Z,92.83
2023-01-29T03:10:47.196Z,91.14
2023-01-29T03:13:22.044Z,89.62
2023-01-29T03:16:01.409Z,89.91
2023-01-29T03:18:48.626Z,91.19
2023-01-29T03:21:41.388Z,91.88
2023-01-29T03:24:32.200Z,92.65
2023-01-29T03:27:22.889Z,91.46
2023-01-29T03:30:10.665Z,91.20
2023-01-29T03:32:52.036Z,90.12
2023-01-29T03:35:33.345Z,91.26
2023-01-29T03:38:00.892Z,93.08
2023-01-29T03:40:32.481Z,95.74
2023-01-29T03:43:32.149Z,95.29
2023-01-29T03:46:21.235Z,93.91
2023-01-29T03:48:53.245Z,93.40
2023-01-29T03:51:33.380Z,92.88
2023-01-29T03:54:07.697Z,90.74
2023-01-29T03:56:45.695Z,91.53
2023-01-29T03:59:22.703Z,92.38
2023-01-29T04:02:11.500Z,94.71
2023-01-29T04:04:41.698Z,94.93
2023-01-29T04:07:19.098Z,96.27
2023-01-29T04:09:50.518Z,98.26
2023-01-29T04:12:24.329Z,97.98
2023-01-29T04:14:52.804Z,97.01
2023-01-29T04:17:26.004Z,98.23
2023-01-29T04:20:16.218Z,97.85
2023-01-29T04:22:47.282Z,95.93
2023-01-29T04:25:17.433Z,94.23
2023-01-29T04:28:11.359Z,96.31
2023-01-29T04:30:50.465Z,97.70
2023-01-29T04:33:32.127Z,97.90
2023-01-29T04:36:09.860Z,97.13
2023-01-29T04:38:52.058Z,96.84
2023-01-29T04:41:30.666Z,95.02
2023-01-29T04:44:28.698Z,94.52
2023-01-29T04:47:13.803Z,93.71
2023-01-29T04:49:52.837Z,93.36
2023-01-29T04:52:33.239Z,93.39
2023-01-29T04:55:24.448Z,94.77
2023-01-29T04:58:00.882Z,94.94
2023-01-29T05:00:32.263Z,95.26
2023-01-29T05:03:01.824Z,94.71
2023-01-29T05:05:29.024Z,93.91
2023-01-29T05:07:57.913Z,93.22
2023-01-29T05:10:25.351Z,92.92
2023-01-29T05:12:58.676Z,94.33
2023-01-29T05:15:33.460Z,94.70
2023-01-29T05:18:02.930Z,95.16
2023-01-29T05:20:34.095Z,97.22
2023-01-29T05:23:00.621Z,96.56
2023-01-29T05:25:31.077Z,95.57
2023-01-29T05:28:16.110Z,95.69
2023-01-29T05:30:51.251Z,94.88
2023-01-29T05:33:29.962Z,93.72
2023-01-29T05:35:58.801Z,93.65
2023-01-29T05:38:25.846Z,92.96
2023-01-29T05:40:52.279Z,92.68
2023-01-29T05:43:21.027Z,90.92
2023-01-29T05:45:54.377Z,92.20
2023-01-29T05:48:21.369Z,92.52
2023-01-29T05:50:48.048Z,93.08
2023-01-29T05:53:14.644Z,93.55
2023-01-29T05:55:45.552Z,94.62
2023-01-29T05:58:12.688Z,94.48
2023-01-29T06:00:39.640Z,93.95
2023-01-29T06:03:06.358Z,94.22
2023-01-29T06:05:32.842Z,93.22
2023-01-29T06:07:59.241Z,94.51
2023-01-29T06:10:25.781Z,93.64
2023-01-29T06:12:52.192Z,92.20
2023-01-29T06:15:19.749Z,92.28
2023-01-29T06:17:46.202Z,93.09
2023-01-29T06:20:13.729Z,93.42
2023-01-29T06:22:40.303Z,94.28
2023-01-29T06:25:07.408Z,94.72
2023-01-29T06:27:34.017Z,94.87
2023-01-29T06:30:00.539Z,96.38
2023-01-29T06:32:27.778Z,94.93
2023-01-29T06:34:54.242Z,94.68
2023-01-29T06:37:20.687Z,92.87
2023-01-29T06:39:47.118Z,95.64
2023-01-29T06:42:13.536Z,95.41
2023-01-29T06:44:39.945Z,93.35
2023-01-29T06:47:06.353Z,94.36
2023-01-29T06:49:32.757Z,94.40
2023-01-29T06:51:59.243Z,94.69
2023-01-29T06:54:25.844Z,95.29
2023-01-29T06:56:52.452Z,94.71
2023-01-29T06:59:18.887Z,94.71
2023-01-29T07:01:45.452Z,93.64
2023-01-29T07:04:12.028Z,95.37
2023-01-29T07:06:38.557Z,94.78
2023-01-29T07:09:05.300Z,95.43
2023-01-29T07:11:32.137Z,95.31
2023-01-29T07:13:58.566Z,94.53
2023-01-29T07:16:26.315Z,95.18
2023-01-29T07:18:53.476Z,97.52
2023-01-29T07:21:19.923Z,97.07
2023-01-29T07:23:46.507Z,97.22
2023-01-29T07:26:13.012Z,96.09
2023-01-29T07:28:39.957Z,96.00
2023-01-29T07:31:07.747Z,95.48
2023-01-29T07:33:34.653Z,95.81
2023-01-29T07:36:01.176Z,95.64
2023-01-29T07:38:27.818Z,95.75
2023-01-29T07:40:54.594Z,93.94
2023-01-29T07:43:21.049Z,93.82
2023-01-29T07:45:47.663Z,93.21
2023-01-29T07:48:14.142Z,93.74
2023-01-29T07:50:41.147Z,94.75
2023-01-29T07:53:07.713Z,96.07
2023-01-29T07:55:34.299Z,96.83
2023-01-29T07:58:02.806Z,96.13
2023-01-29T08:00:31.287Z,95.30
2023-01-29T08:03:24.151Z,93.44
2023-01-29T08:05:50.675Z,92.45
2023-01-29T08:08:17.161Z,92.83
2023-01-29T08:10:43.662Z,94.08
2023-01-29T08:13:10.182Z,92.77
2023-01-29T08:18:23.415Z,92.35
2023-01-29T08:20:49.810Z,92.97
2023-01-29T08:23:16.598Z,93.99
2023-01-29T08:25:43.506Z,93.04
2023-01-29T08:28:11.613Z,93.68
2023-01-29T08:30:38.552Z,94.37
2023-01-29T08:33:05.115Z,94.12
2023-01-29T08:35:31.784Z,94.21
2023-01-29T08:38:00.888Z,93.75
2023-01-29T08:40:29.355Z,94.14
2023-01-29T08:43:02.142Z,93.57
2023-01-29T08:45:30.183Z,91.17
2023-01-29T08:47:56.845Z,91.98
2023-01-29T08:50:23.377Z,92.66
2023-01-29T08:52:49.797Z,93.01
2023-01-29T08:55:16.579Z,90.77
2023-01-29T08:57:43.128Z,89.04
2023-01-29T09:00:10.584Z,89.69
2023-01-29T09:02:37.628Z,87.10
2023-01-29T09:05:04.401Z,82.99
2023-01-29T09:07:30.847Z,84.19
2023-01-29T09:09:57.425Z,82.54
2023-01-29T09:12:23.988Z,84.45
2023-01-29T09:14:50.509Z,80.54
2023-01-29T09:17:17.121Z,80.94
2023-01-29T09:19:43.710Z,80.63
2023-01-29T09:22:11.836Z,79.66
2023-01-29T09:24:38.769Z,82.44
2023-01-29T09:27:06.162Z,80.49
2023-01-29T09:29:35.452Z,79.74
2023-01-29T09:32:03.429Z,79.28
2023-01-29T09:34:29.926Z,78.99
2023-01-29T09:36:56.388Z,79.05
2023-01-29T09:39:22.794Z,78.64
2023-01-29T09:42:01.136Z,77.49
2023-01-29T09:44:54.412Z,76.50
2023-01-29T09:47:24.885Z,79.46
2023-01-29T09:49:59.064Z,81.69
2023-01-29T09:52:30.148Z,81.37
2023-01-29T09:55:06.853Z,81.64
2023-01-29T09:57:56.227Z,81.62
2023-01-29T10:00:40.235Z,79.98
2023-01-29T10:03:31.723Z,79.28
2023-01-29T10:06:16.814Z,80.61
2023-01-29T10:09:16.043Z,80.47
2023-01-29T10:11:58.235Z,78.65
2023-01-29T10:14:43.703Z,79.65
2023-01-29T10:18:01.510Z,78.17
2023-01-29T10:20:50.019Z,77.12
2023-01-29T10:23:41.318Z,78.38
2023-01-29T10:26:12.601Z,79.05
2023-01-29T10:28:46.255Z,77.11
2023-01-29T10:31:18.949Z,78.45
2023-01-29T10:34:01.382Z,80.76
2023-01-29T10:36:36.279Z,80.49
2023-01-29T10:39:02.730Z,79.24
2023-01-29T10:41:41.085Z,77.57
2023-01-29T10:44:25.858Z,78.73
2023-01-29T10:47:23.644Z,77.41
2023-01-29T10:50:02.215Z,77.85
2023-01-29T10:52:50.505Z,76.08
2023-01-29T10:55:28.218Z,75.45
2023-01-29T10:58:36.103Z,76.75
2023-01-29T11:01:02.761Z,77.11
2023-01-29T11:03:33.428Z,75.02
2023-01-29T11:06:21.629Z,74.52
2023-01-29T11:08:48.021Z,74.88
2023-01-29T11:11:17.693Z,77.09
2023-01-29T11:13:57.522Z,77.84
2023-01-29T11:16:24.436Z,76.14
2023-01-29T11:18:54.420Z,77.94
2023-01-29T11:21:21.295Z,78.00
2023-01-29T11:23:48.044Z,76.94
2023-01-29T11:26:20.619Z,77.80
2023-01-29T11:28:49.605Z,77.54
2023-01-29T11:31:22.409Z,77.92
2023-01-29T11:33:52.511Z,76.28
2023-01-29T11:36:28.484Z,77.45
2023-01-29T11:39:08.838Z,77.55
2023-01-29T11:42:04.492Z,78.47
2023-01-29T11:44:41.875Z,78.20
2023-01-29T11:47:20.957Z,78.35
2023-01-29T11:49:59.584Z,77.04
2023-01-29T11:52:34.729Z,78.57
2023-01-29T11:55:05.337Z,78.39
2023-01-29T11:57:42.866Z,78.01
2023-01-29T12:00:18.677Z,78.86
2023-01-29T12:02:53.780Z,76.46
2023-01-29T12:05:23.261Z,76.30
2023-01-29T12:07:53.212Z,77.04
2023-01-29T12:10:40.990Z,78.21
2023-01-29T12:13:10.767Z,77.40
2023-01-29T12:15:47.457Z,76.24
2023-01-29T12:18:35.531Z,78.50
2023-01-29T12:21:04.712Z,76.78
2023-01-29T12:23:49.764Z,78.92
2023-01-29T12:26:25.361Z,78.17
2023-01-29T12:29:04.661Z,78.08
2023-01-29T12:31:45.708Z,77.73
2023-01-29T12:34:38.316Z,74.31
2023-01-29T12:37:34.273Z,77.38
2023-01-29T12:40:01.679Z,76.38
2023-01-29T12:42:28.303Z,76.78
2023-01-29T12:45:01.342Z,74.74
2023-01-29T12:47:36.022Z,75.30
2023-01-29T12:50:08.004Z,76.17
2023-01-29T12:52:41.434Z,76.44
2023-01-29T12:55:22.067Z,77.56
2023-01-29T12:57:59.166Z,78.86
2023-01-29T13:00:29.507Z,79.48
2023-01-29T13:03:26.517Z,78.82
2023-01-29T13:05:57.013Z,79.98
2023-01-29T13:08:30.546Z,78.16
2023-01-29T13:11:00.919Z,76.57
2023-01-29T13:13:54.473Z,77.12
2023-01-29T13:16:37.482Z,77.78
2023-01-29T13:19:13.882Z,78.60
2023-01-29T13:21:43.765Z,78.48
2023-01-29T13:24:15.793Z,78.24
2023-01-29T13:26:47.307Z,76.22
2023-01-29T13:29:25.402Z,76.22
2023-01-29T13:32:03.718Z,76.92
2023-01-29T13:34:32.295Z,75.95
2023-01-29T13:37:02.151Z,78.79
2023-01-29T13:39:30.395Z,76.75
2023-01-29T13:41:59.106Z,79.02
2023-01-29T13:44:32.344Z,79.39
2023-01-29T13:47:01.842Z,77.31
2023-01-29T13:49:41.340Z,77.24
2023-01-29T13:52:21.159Z,77.32
2023-01-29T13:54:57.219Z,79.27
2023-01-29T13:57:39.207Z,78.44
2023-01-29T14:00:05.935Z,76.14
2023-01-29T14:02:32.596Z,76.32
2023-01-29T14:05:30.282Z,76.54
2023-01-29T14:07:59.340Z,77.04
2023-01-29T14:10:31.431Z,76.91
2023-01-29T14:13:03.775Z,79.50
2023-01-29T14:15:39.232Z,79.49
2023-01-29T14:18:18.958Z,78.98
2023-01-29T14:20:48.259Z,79.65
2023-01-29T14:23:32.895Z,79.46
2023-01-29T14:26:01.076Z,80.15
2023-01-29T14:28:30.857Z,80.98
2023-01-29T14:30:57.827Z,79.54
2023-01-29T14:33:27.537Z,80.93
2023-01-29T14:35:56.804Z,80.37
2023-01-29T14:38:28.614Z,79.99
2023-01-29T14:41:32.582Z,76.46
2023-01-29T14:44:36.776Z,75.93
2023-01-29T14:47:04.692Z,73.32
2023-01-29T14:49:58.998Z,71.52
2023-01-29T14:52:35.867Z,73.65
2023-01-29T14:55:06.837Z,75.23
2023-01-29T14:57:34.017Z,77.40
2023-01-29T15:00:05.246Z,76.79
2023-01-29T15:02:40.478Z,77.14
2023-01-29T15:05:30.576Z,77.94
2023-01-29T15:08:06.214Z,76.57
2023-01-29T15:10:40.023Z,73.58
2023-01-29T15:13:29.489Z,74.39
2023-01-29T15:16:02.723Z,73.43
2023-01-29T15:18:42.259Z,71.38
2023-01-29T15:21:17.026Z,70.99
2023-01-29T15:23:45.261Z,71.49
2023-01-29T15:26:18.678Z,73.12
2023-01-29T15:28:54.860Z,74.76
2023-01-29T15:31:25.899Z,74.42
2023-01-29T15:33:56.090Z,75.57
2023-01-29T15:36:24.348Z,75.97
2023-01-29T15:39:09.433Z,79.36
2023-01-29T15:41:35.884Z,79.70
2023-01-29T15:44:02.308Z,80.33
2023-01-29T15:46:36.254Z,81.87
2023-01-29T15:49:08.641Z,82.81
2023-01-29T15:51:35.572Z,83.49
2023-01-29T15:54:04.776Z,84.48
2023-01-29T15:56:36.169Z,86.58
2023-01-29T15:59:09.830Z,86.24
2023-01-29T16:01:36.658Z,86.46
2023-01-29T16:04:04.192Z,87.35
2023-01-29T16:06:37.535Z,87.47
2023-01-29T16:09:05.398Z,87.76
2023-01-29T16:11:33.210Z,87.73
2023-01-29T16:14:01.328Z,88.39
2023-01-29T16:16:28.549Z,89.39
2023-01-29T16:19:00.423Z,89.22
2023-01-29T16:21:33.244Z,89.92
2023-01-29T16:24:11.823Z,91.26
2023-01-29T16:26:43.549Z,91.18
2023-01-29T16:29:11.969Z,91.71
2023-01-29T16:31:39.656Z,91.93
2023-01-29T16:34:25.995Z,91.98
2023-01-29T16:36:54.671Z,91.26
2023-01-29T16:39:27.666Z,91.89
2023-01-29T16:42:17.481Z,92.47
2023-01-29T16:44:54.758Z,93.98
2023-01-29T16:47:31.408Z,94.01
2023-01-29T16:50:54.318Z,94.39
2023-01-29T16:53:23.283Z,96.34
2023-01-29T16:55:52.388Z,97.22
2023-01-29T16:58:26.000Z,96.96
2023-01-29T17:01:00.057Z,98.02
2023-01-29T17:03:28.522Z,98.50
2023-01-29T17:05:55.004Z,99.60
2023-01-29T17:08:33.632Z,99.48
2023-01-29T17:11:01.328Z,99.31
2023-01-29T17:13:42.636Z,99.30
2023-01-29T17:16:32.378Z,99.48
2023-01-29T17:19:00.220Z,100.00
2023-01-29T17:21:26.933Z,100.00
2023-01-29T17:23:53.807Z,100.00
2023-01-29T17:26:21.009Z,100.00
2023-01-29T17:28:51.247Z,100.00
2023-01-29T17:31:17.830Z,100.00
2023-01-29T17:33:45.807Z,100.00
2023-01-29T17:36:15.279Z,100.00
2023-01-29T17:38:41.951Z,100.00
2023-01-29T17:41:18.338Z,100.00
2023-01-29T17:43:44.891Z,100.00
2023-01-29T17:46:16.718Z,100.00
2023-01-29T17:48:43.767Z,100.00
2023-01-29T17:51:15.012Z,100.00
2023-01-29T17:53:45.889Z,100.00
2023-01-29T17:56:30.897Z,100.00
2023-01-29T17:58:57.313Z,100.00
2023-01-29T18:01:23.886Z,100.00
2023-01-29T18:03:50.407Z,100.00
2023-01-29T18:06:28.624Z,100.00
2023-01-29T18:08:56.401Z,100.00
2023-01-29T18:11:23.451Z,100.00
2023-01-29T18:13:50.788Z,100.00
2023-01-29T18:16:18.453Z,100.00
2023-01-29T18:18:44.983Z,100.00
2023-01-29T18:21:11.476Z,100.00
2023-01-29T18:23:37.942Z,100.00
2023-01-29T18:26:04.805Z,100.00
2023-01-29T18:28:31.363Z,100.00
2023-01-29T18:30:57.830Z,100.00
2023-01-29T18:33:25.789Z,100.00
2023-01-29T18:35:54.939Z,100.00
2023-01-29T18:38:21.437Z,100.00
2023-01-29T18:40:47.926Z,100.00
2023-01-29T18:43:15.279Z,100.00
2023-01-29T18:45:42.066Z,100.00
2023-01-29T18:48:08.793Z,100.00
2023-01-29T18:50:36.329Z,100.00
2023-01-29T18:53:04.205Z,100.00
2023-01-29T18:55:30.723Z,100.00
2023-01-29T18:58:24.929Z,100.00
2023-01-29T19:00:43.843Z,100.00
2023-01-29T19:03:11.092Z,100.00
2023-01-29T19:05:37.869Z,100.00
2023-01-29T19:08:05.488Z,100.00
2023-01-29T19:10:32.054Z,100.00
2023-01-29T19:12:58.498Z,100.00
2023-01-29T19:15:24.955Z,100.00
2023-01-29T19:17:51.659Z,100.00
2023-01-29T19:20:18.779Z,100.00
2023-01-29T19:22:45.372Z,100.00
2023-01-29T19:25:12.583Z,100.00
2023-01-29T19:27:39.208Z,100.00
2023-01-29T19:30:06.277Z,100.00
2023-01-29T19:32:33.047Z,100.00
2023-01-29T19:34:59.594Z,100.00
2023-01-29T19:37:26.156Z,100.00
2023-01-29T19:39:53.755Z,100.00
2023-01-29T19:42:20.885Z,100.00
2023-01-29T19:44:47.633Z,100.00
2023-01-29T19:47:14.217Z,100.00
2023-01-29T19:49:40.731Z,100.00
2023-01-29T19:52:14.795Z,100.00
2023-01-29T19:54:46.539Z,100.00
2023-01-29T19:57:12.898Z,100.00
2023-01-29T19:59:39.452Z,100.00
2023-01-29T20:02:06.371Z,100.00
2023-01-29T20:04:32.975Z,100.00
2023-01-29T20:06:59.405Z,100.00
2023-01-29T20:09:25.910Z,100.00
2023-01-29T20:11:52.423Z,100.00
2023-01-29T20:14:18.866Z,100.00
2023-01-29T20:16:45.344Z,100.00
2023-01-29T20:19:14.346Z,100.00
2023-01-29T20:21:42.508Z,100.00
2023-01-29T20:24:12.623Z,100.00
2023-01-29T20:26:39.151Z,100.00
2023-01-29T20:29:06.392Z,100.00
2023-01-29T20:31:33.756Z,100.00
2023-01-29T20:34:00.196Z,100.00
2023-01-29T20:36:26.670Z,100.00
2023-01-29T20:38:53.127Z,100.00
2023-01-29T20:41:19.853Z,100.00
2023-01-29T20:43:47.295Z,100.00
2023-01-29T20:46:14.267Z,100.00
2023-01-29T20:48:41.982Z,100.00
2023-01-29T20:51:15.454Z,100.00
2023-01-29T20:53:45.043Z,100.00
2023-01-29T20:56:12.918Z,100.00
2023-01-29T20:58:40.998Z,100.00
2023-01-29T21:01:09.665Z,100.00
2023-01-29T21:03:36.580Z,100.00
2023-01-29T21:06:03.001Z,100.00
2023-01-29T21:08:29.520Z,100.00
2023-01-29T21:10:56.149Z,100.00
2023-01-29T21:13:22.713Z,100.00
2023-01-29T21:15:52.597Z,100.00
2023-01-29T21:18:19.553Z,100.00
2023-01-29T21:20:46.041Z,100.00
2023-01-29T21:23:12.500Z,100.00
2023-01-29T21:25:39.605Z,100.00
2023-01-29T21:28:06.087Z,100.00
2023-01-29T21:30:33.743Z,100.00
2023-01-29T21:33:00.173Z,100.00
2023-01-29T21:35:26.683Z,100.00
2023-01-29T21:37:53.186Z,100.00
2023-01-29T21:40:21.143Z,100.00
2023-01-29T21:43:06.495Z,100.00
2023-01-29T21:45:34.774Z,100.00
2023-01-29T21:48:02.302Z,100.00
2023-01-29T21:50:28.761Z,100.00
2023-01-29T21:52:55.188Z,100.00
2023-01-29T21:55:21.648Z,100.00
2023-01-29T21:57:48.768Z,100.00
2023-01-29T22:00:16.003Z,100.00
2023-01-29T22:02:42.743Z,100.00
2023-01-29T22:05:18.652Z,100.00
2023-01-29T22:07:45.755Z,100.00
2023-01-29T22:10:12.784Z,100.00
2023-01-29T22:12:39.904Z,100.00
2023-01-29T22:15:07.805Z,100.00
2023-01-29T22:17:35.180Z,100.00
2023-01-29T22:20:02.085Z,100.00
2023-01-29T22:22:28.552Z,100.00
2023-01-29T22:24:56.413Z,100.00
2023-01-29T22:27:22.887Z,100.00
2023-01-29T22:29:49.362Z,100.00
2023-01-29T22:32:16.331Z,100.00
2023-01-29T22:34:42.857Z,100.00
2023-01-29T22:37:09.262Z,100.00
2023-01-29T22:39:35.799Z,100.00
2023-01-29T22:42:02.192Z,100.00
2023-01-29T22:44:28.661Z,100.00
2023-01-29T22:46:55.102Z,100.00
2023-01-29T22:49:21.594Z,100.00
2023-01-29T22:51:48.100Z,100.00
2023-01-29T22:54:15.497Z,100.00
2023-01-29T22:56:41.950Z,100.00
2023-01-29T22:59:10.051Z,100.00
2023-01-29T23:01:36.556Z,100.00
2023-01-29T23:04:03.038Z,100.00
2023-01-29T23:06:29.510Z,100.00
2023-01-29T23:08:55.994Z,100.00
2023-01-29T23:11:23.472Z,100.00
2023-01-29T23:13:52.727Z,100.00
2023-01-29T23:16:21.792Z,100.00
2023-01-29T23:18:53.215Z,100.00
2023-01-29T23:21:22.610Z,100.00
2023-01-29T23:23:49.284Z,100.00
2023-01-29T23:26:34.619Z,100.00
2023-01-29T23:29:01.166Z,100.00
2023-01-29T23:31:27.760Z,100.00
2023-01-29T23:33:54.249Z,100.00
2023-01-29T23:36:21.173Z,100.00
2023-01-29T23:38:47.643Z,100.00
2023-01-29T23:41:14.097Z,100.00
2023-01-29T23:43:40.576Z,100.00
2023-01-29T23:46:07.429Z,100.00
2023-01-29T23:48:33.943Z,100.00
2023-01-29T23:51:00.608Z,100.00
2023-01-29T23:53:27.488Z,100.00
2023-01-29T23:55:59.192Z,100.00
2023-01-29T23:58:26.470Z,100.00
